Terminal Aerodrome Forecast
Issued by NWS Missoula, MT

Home | Current Version | Previous Version | Text Only | Print | Product List | Glossary On
Versions: 1 2 3 4 5 6 7 8 9 10 11 12
000
FTUS45 KMSO 022326
TAFGPI
TAF
KGPI 022326Z 0300/0324 24013G20KT P6SM VCSH OVC070
     FM030100 22006KT P6SM VCSH OVC050
     FM030700 VRB03KT P6SM -RA OVC025
     FM031800 VRB03KT P6SM VCSH OVC050=

USA.gov is the U.S. government's official web portal to all federal, state and local government web resources and services.